Time;durP1;ratioP1;P1;durP2;ratioP2;P2;SDS_P1;SDS_P2;PMS_P1;PMS_P2;Temp;Humidity;BMP_temperature;BMP_pressure;BME280_temperature;BME280_humidity;BME280_pressure;Samples;Min_cycle;Max_cycle;Signal;HPM_P1;HPM_P2
2022/09/06 00:00:52;;;;;;;0.00;0.00;;;20.70;93.50;;;;;;4892753;29;20076;-80
2022/09/06 00:03:19;;;;;;;0.00;0.00;;;20.60;93.50;;;;;;4889933;29;20490;-79
2022/09/06 00:05:45;;;;;;;0.00;0.00;;;20.60;93.70;;;;;;4891535;29;20052;-79
2022/09/06 00:08:13;;;;;;;0.00;0.00;;;20.60;93.90;;;;;;4894172;29;20049;-79
2022/09/06 00:10:42;;;;;;;0.00;0.00;;;20.60;93.80;;;;;;4893815;29;20061;-79
2022/09/06 00:13:10;;;;;;;0.00;0.00;;;20.60;93.70;;;;;;4895698;29;20502;-78
2022/09/06 00:15:37;;;;;;;0.00;0.00;;;20.50;93.90;;;;;;4883017;29;20139;-80
2022/09/06 00:18:06;;;;;;;0.00;0.00;;;20.60;93.90;;;;;;4902722;29;20802;-79
2022/09/06 00:20:33;;;;;;;0.00;0.00;;;20.60;93.90;;;;;;4909307;29;20048;-79
2022/09/06 00:23:02;;;;;;;0.00;0.00;;;20.50;94.30;;;;;;4891662;29;20056;-78
2022/09/06 00:25:29;;;;;;;0.00;0.00;;;20.50;94.30;;;;;;4893493;29;20037;-79
2022/09/06 00:27:59;;;;;;;0.00;0.00;;;20.50;94.50;;;;;;4892537;29;20036;-78
2022/09/06 00:30:26;;;;;;;;;;;20.50;94.40;;;;;;4905947;29;20053;-79
2022/09/06 00:32:53;;;;;;;0.00;0.00;;;20.50;94.40;;;;;;4910082;29;19980;-79
2022/09/06 00:35:21;;;;;;;0.00;0.00;;;20.40;94.80;;;;;;4905906;29;20088;-80
2022/09/06 00:37:47;;;;;;;0.00;0.00;;;20.40;94.70;;;;;;4893083;29;20041;-80
2022/09/06 00:40:14;;;;;;;0.00;0.00;;;20.40;94.70;;;;;;4893318;29;20052;-79
2022/09/06 00:42:41;;;;;;;0.00;0.00;;;20.40;94.80;;;;;;4889957;29;20064;-80
2022/09/06 00:45:11;;;;;;;0.00;0.00;;;20.40;94.70;;;;;;4891050;29;20037;-80
2022/09/06 00:47:41;;;;;;;0.00;0.00;;;20.30;94.70;;;;;;4894500;29;20458;-79
2022/09/06 00:50:09;;;;;;;;;;;20.40;94.80;;;;;;4892032;29;20052;-80
2022/09/06 00:52:36;;;;;;;0.00;0.00;;;20.40;94.60;;;;;;4895782;29;20427;-81
2022/09/06 00:55:04;;;;;;;0.00;0.00;;;20.40;94.70;;;;;;4888985;29;20111;-79
2022/09/06 00:57:31;;;;;;;0.00;0.00;;;20.40;94.60;;;;;;4892694;29;20076;-79
2022/09/06 00:59:59;;;;;;;0.00;0.00;;;20.40;95.10;;;;;;4907135;29;20040;-79
2022/09/06 01:02:27;;;;;;;0.00;0.00;;;20.40;94.80;;;;;;4887135;29;20062;-79
2022/09/06 01:04:54;;;;;;;0.00;0.00;;;20.40;95.00;;;;;;4887273;29;20048;-78
2022/09/06 01:07:30;;;;;;;0.00;0.00;;;20.40;94.90;;;;;;4895564;29;20044;-79
2022/09/06 01:10:29;;;;;;;0.00;0.00;;;20.30;95.00;;;;;;4893393;29;20124;-78
2022/09/06 01:13:02;;;;;;;0.00;0.00;;;20.40;94.80;;;;;;4838821;29;20057;-78
2022/09/06 01:15:39;;;;;;;0.00;0.00;;;20.40;95.10;;;;;;4887879;29;20062;-80
2022/09/06 01:18:22;;;;;;;0.00;0.00;;;20.30;95.00;;;;;;4890432;29;20040;-80
2022/09/06 01:21:04;;;;;;;0.00;0.00;;;20.30;95.00;;;;;;4908230;29;20552;-80
2022/09/06 01:23:58;;;;;;;0.00;0.00;;;20.40;95.00;;;;;;4893624;29;20048;-80
2022/09/06 01:26:50;;;;;;;0.00;0.00;;;20.40;95.20;;;;;;4907164;29;20403;-79
2022/09/06 01:29:26;;;;;;;0.00;0.00;;;20.30;95.20;;;;;;4892693;29;20056;-79
2022/09/06 01:31:59;;;;;;;0.00;0.00;;;20.30;95.30;;;;;;4885435;29;20063;-78
2022/09/06 01:34:33;;;;;;;0.00;0.00;;;20.30;95.10;;;;;;4906078;29;20477;-80
2022/09/06 01:37:04;;;;;;;0.00;0.00;;;20.40;95.00;;;;;;4889687;29;20497;-79
2022/09/06 01:39:39;;;;;;;0.00;0.00;;;20.40;94.90;;;;;;4891898;29;20041;-78
2022/09/06 01:42:10;;;;;;;0.00;0.00;;;20.50;94.80;;;;;;4892202;29;20053;-78
2022/09/06 01:44:41;;;;;;;0.00;0.00;;;20.50;94.60;;;;;;4887816;29;20506;-79
2022/09/06 01:47:20;;;;;;;0.00;0.00;;;20.50;94.60;;;;;;4885452;29;20037;-79
2022/09/06 01:49:59;;;;;;;0.00;0.00;;;20.50;94.60;;;;;;4887939;29;20195;-80
2022/09/06 01:52:34;;;;;;;0.00;0.00;;;20.50;94.50;;;;;;4892766;29;20312;-80
2022/09/06 01:55:21;;;;;;;0.00;0.00;;;20.50;94.60;;;;;;4906486;29;20049;-80
2022/09/06 01:58:06;;;;;;;0.00;0.00;;;20.50;95.30;;;;;;4889785;29;20044;-80
2022/09/06 02:00:41;;;;;;;0.00;0.00;;;20.30;95.40;;;;;;4884757;29;20053;-80
2022/09/06 02:03:13;;;;;;;0.00;0.00;;;20.30;95.20;;;;;;4893072;29;20049;-79
2022/09/06 02:05:44;;;;;;;0.00;0.00;;;20.30;95.00;;;;;;4888441;29;20044;-80
2022/09/06 02:08:15;;;;;;;0.00;0.00;;;20.30;95.00;;;;;;4891750;29;20065;-80
2022/09/06 02:10:46;;;;;;;0.00;0.00;;;20.30;95.20;;;;;;4904870;29;20057;-80
2022/09/06 02:13:15;;;;;;;0.00;0.00;;;20.30;95.30;;;;;;4888599;29;20045;-78
2022/09/06 02:15:46;;;;;;;0.00;0.00;;;20.30;95.30;;;;;;4890050;29;20505;-79
2022/09/06 02:18:17;;;;;;;0.00;0.00;;;20.30;95.30;;;;;;4897352;29;20048;-79
2022/09/06 02:20:48;;;;;;;0.00;0.00;;;20.20;95.80;;;;;;4895159;29;20056;-80
2022/09/06 02:23:16;;;;;;;0.00;0.00;;;20.20;95.60;;;;;;4893053;29;20437;-80
2022/09/06 02:25:49;;;;;;;0.00;0.00;;;20.20;95.70;;;;;;4895214;29;22492;-80
2022/09/06 02:28:16;;;;;;;0.00;0.00;;;20.30;95.50;;;;;;4895657;29;20048;-79
2022/09/06 02:30:48;;;;;;;0.00;0.00;;;20.20;95.50;;;;;;4894047;29;20108;-79
2022/09/06 02:33:18;;;;;;;0.00;0.00;;;20.20;95.60;;;;;;4910020;29;20068;-79
2022/09/06 02:35:47;;;;;;;0.00;0.00;;;20.20;95.80;;;;;;4893877;29;20068;-80
2022/09/06 02:38:15;;;;;;;0.00;0.00;;;20.20;95.70;;;;;;4896677;29;20434;-80
2022/09/06 02:40:44;;;;;;;0.00;0.00;;;20.10;95.90;;;;;;4894154;29;20060;-79
2022/09/06 02:43:11;;;;;;;0.00;0.00;;;20.10;95.80;;;;;;4894093;29;20045;-80
2022/09/06 02:45:37;;;;;;;0.00;0.00;;;20.10;96.00;;;;;;4893410;29;20040;-80
2022/09/06 02:48:06;;;;;;;0.00;0.00;;;20.00;95.90;;;;;;4888449;29;20064;-80
2022/09/06 02:50:32;;;;;;;0.00;0.00;;;20.00;96.10;;;;;;4910121;29;20432;-80
2022/09/06 02:53:01;;;;;;;0.00;0.00;;;19.90;96.50;;;;;;4897093;29;20048;-80
2022/09/06 02:55:28;;;;;;;0.08;0.08;;;19.90;96.20;;;;;;4896326;29;20457;-79
2022/09/06 02:57:54;;;;;;;0.00;0.00;;;19.90;96.50;;;;;;4893165;29;20540;-79
2022/09/06 03:00:21;;;;;;;0.10;0.10;;;19.80;96.50;;;;;;4904925;29;20041;-79
2022/09/06 03:02:48;;;;;;;0.00;0.00;;;19.80;96.70;;;;;;4887412;29;20045;-79
2022/09/06 03:05:16;;;;;;;0.00;0.00;;;19.80;96.80;;;;;;4913778;29;20047;-80
2022/09/06 03:07:43;;;;;;;0.00;0.00;;;19.70;97.00;;;;;;4891323;29;20089;-81
2022/09/06 03:10:10;;;;;;;0.00;0.00;;;19.70;97.00;;;;;;4893494;29;20045;-79
2022/09/06 03:12:37;;;;;;;0.00;0.00;;;19.70;97.10;;;;;;4890339;29;20049;-79
2022/09/06 03:15:05;;;;;;;0.00;0.00;;;19.70;97.50;;;;;;4896674;29;20056;-80
2022/09/06 03:17:31;;;;;;;0.00;0.00;;;19.70;97.10;;;;;;4893091;29;20796;-79
2022/09/06 03:19:58;;;;;;;0.00;0.00;;;19.70;97.10;;;;;;4898048;29;20501;-79
2022/09/06 03:22:26;;;;;;;0.00;0.00;;;19.70;97.60;;;;;;4892042;29;20044;-79
2022/09/06 03:24:53;;;;;;;0.00;0.00;;;19.60;97.50;;;;;;4896141;29;20060;-80
2022/09/06 03:27:20;;;;;;;0.00;0.00;;;19.60;97.40;;;;;;4893234;29;20096;-79
2022/09/06 03:29:47;;;;;;;0.00;0.00;;;19.60;97.50;;;;;;4894682;29;20053;-80
2022/09/06 03:32:13;;;;;;;0.00;0.00;;;19.70;97.50;;;;;;4893271;29;20056;-80
2022/09/06 03:34:40;;;;;;;0.00;0.00;;;19.70;98.10;;;;;;4893923;29;20109;-78
2022/09/06 03:37:07;;;;;;;0.00;0.00;;;19.70;98.20;;;;;;4908803;29;20044;-79
2022/09/06 03:39:35;;;;;;;0.00;0.00;;;19.70;97.90;;;;;;4941662;23;20513;-80
2022/09/06 03:42:02;;;;;;;0.00;0.00;;;19.80;97.80;;;;;;4919545;29;20099;-81
2022/09/06 03:44:29;;;;;;;0.00;0.00;;;19.90;98.00;;;;;;4932847;29;20048;-81
2022/09/06 03:46:56;;;;;;;0.00;0.00;;;19.70;98.30;;;;;;4933255;29;20060;-82
2022/09/06 03:49:23;;;;;;;0.00;0.00;;;19.70;98.40;;;;;;4922436;29;20047;-84
2022/09/06 03:51:50;;;;;;;0.00;0.00;;;19.80;98.30;;;;;;4918123;29;20052;-83
2022/09/06 03:54:16;;;;;;;0.00;0.00;;;19.70;98.60;;;;;;4922879;29;20450;-83
2022/09/06 03:56:44;;;;;;;0.00;0.00;;;19.70;98.20;;;;;;4920239;29;20096;-84
2022/09/06 03:59:11;;;;;;;0.00;0.00;;;19.70;98.30;;;;;;4920940;29;20099;-84
2022/09/06 04:01:38;;;;;;;0.00;0.00;;;19.70;98.60;;;;;;4924105;29;20059;-82
2022/09/06 04:04:05;;;;;;;0.00;0.00;;;19.70;98.20;;;;;;4930044;29;20083;-82
2022/09/06 04:06:32;;;;;;;0.00;0.00;;;19.80;98.20;;;;;;4920838;29;20048;-83
2022/09/06 04:08:59;;;;;;;0.00;0.00;;;19.70;98.40;;;;;;4915248;29;20036;-82
2022/09/06 04:11:25;;;;;;;0.00;0.00;;;19.80;98.30;;;;;;4929888;29;20076;-83
2022/09/06 04:13:53;;;;;;;0.00;0.00;;;19.70;98.70;;;;;;4932782;29;20052;-83
2022/09/06 04:16:20;;;;;;;0.00;0.00;;;19.70;98.60;;;;;;4920783;29;20501;-83
2022/09/06 04:18:48;;;;;;;0.00;0.00;;;;;;;;;;4931303;29;20606;-82
2022/09/06 04:21:14;;;;;;;0.00;0.00;;;19.60;99.00;;;;;;4926483;29;20556;-82
2022/09/06 04:23:41;;;;;;;0.00;0.00;;;19.70;98.90;;;;;;4919479;29;20048;-82
2022/09/06 04:26:08;;;;;;;0.00;0.00;;;19.70;99.20;;;;;;4928530;29;20052;-83
2022/09/06 04:28:35;;;;;;;0.00;0.00;;;19.70;98.90;;;;;;4933993;28;20039;-83
2022/09/06 04:31:04;;;;;;;0.00;0.00;;;19.80;98.90;;;;;;4922664;29;20059;-83
2022/09/06 04:33:32;;;;;;;0.00;0.00;;;19.80;98.80;;;;;;4920635;29;20131;-83
2022/09/06 04:36:01;;;;;;;0.00;0.00;;;19.80;98.70;;;;;;4933624;28;20063;-83
2022/09/06 04:38:30;;;;;;;0.10;0.10;;;19.90;98.70;;;;;;4936276;29;20051;-84
2022/09/06 04:40:57;;;;;;;0.00;0.00;;;19.90;98.70;;;;;;4923143;29;20060;-83
2022/09/06 04:43:23;;;;;;;0.00;0.00;;;19.90;98.60;;;;;;4922712;29;20044;-84
2022/09/06 04:45:50;;;;;;;0.00;0.00;;;20.00;98.50;;;;;;4921803;29;20052;-84
2022/09/06 04:48:19;;;;;;;0.00;0.00;;;20.00;98.60;;;;;;4924459;29;20048;-83
2022/09/06 04:50:45;;;;;;;0.00;0.00;;;20.00;98.60;;;;;;4934025;29;20531;-84
2022/09/06 04:53:12;;;;;;;0.00;0.00;;;20.00;98.40;;;;;;4926003;29;20052;-83
2022/09/06 04:55:39;;;;;;;0.00;0.00;;;20.10;98.40;;;;;;4921057;29;20290;-82
2022/09/06 04:58:06;;;;;;;0.00;0.00;;;20.00;99.10;;;;;;4927906;29;20060;-83
2022/09/06 05:00:34;;;;;;;0.00;0.00;;;20.10;98.70;;;;;;4934545;29;20052;-83
2022/09/06 05:03:01;;;;;;;0.00;0.00;;;20.10;98.80;;;;;;4934281;29;20051;-82
2022/09/06 05:05:29;;;;;;;0.00;0.00;;;20.10;99.10;;;;;;4921621;29;20048;-83
2022/09/06 05:07:56;;;;;;;0.00;0.00;;;;;;;;;;4921739;29;20059;-83
2022/09/06 05:10:24;;;;;;;0.00;0.00;;;20.10;99.80;;;;;;4921437;29;20095;-83
2022/09/06 05:12:52;;;;;;;0.00;0.00;;;20.10;99.90;;;;;;4924953;29;20100;-83
2022/09/06 05:15:20;;;;;;;0.00;0.00;;;20.00;99.90;;;;;;4926729;29;20051;-82
2022/09/06 05:17:47;;;;;;;0.00;0.00;;;19.60;99.90;;;;;;4931985;28;20044;-83
2022/09/06 05:20:14;;;;;;;0.00;0.00;;;19.70;99.90;;;;;;4921999;29;20059;-84
2022/09/06 05:22:50;;;;;;;0.00;0.00;;;19.50;99.90;;;;;;4920191;29;20051;-83
2022/09/06 05:25:17;;;;;;;0.00;0.00;;;19.40;99.90;;;;;;4926142;29;20040;-83
2022/09/06 05:27:44;;;;;;;0.00;0.00;;;19.30;99.90;;;;;;4921934;29;20096;-82
2022/09/06 05:30:12;;;;;;;0.00;0.00;;;19.30;99.90;;;;;;4922202;29;20052;-82
2022/09/06 05:32:38;;;;;;;0.00;0.00;;;19.30;99.90;;;;;;4919371;29;20386;-83
2022/09/06 05:35:06;;;;;;;0.00;0.00;;;19.20;99.90;;;;;;4933018;29;20052;-84
2022/09/06 05:37:33;;;;;;;0.00;0.00;;;;;;;;;;4927730;29;20048;-84
2022/09/06 05:40:01;;;;;;;0.00;0.00;;;19.20;99.90;;;;;;4918608;29;20088;-84
2022/09/06 05:42:28;;;;;;;0.00;0.00;;;19.20;99.90;;;;;;4917021;29;20065;-83
2022/09/06 05:44:55;;;;;;;0.00;0.00;;;19.20;99.90;;;;;;4918012;29;20048;-83
2022/09/06 05:47:22;;;;;;;0.00;0.00;;;19.20;99.90;;;;;;4920850;29;20044;-83
2022/09/06 05:49:48;;;;;;;0.00;0.00;;;19.30;99.90;;;;;;4930503;29;20420;-83
2022/09/06 05:52:16;;;;;;;0.00;0.00;;;19.30;99.90;;;;;;4933622;29;20084;-83
2022/09/06 05:54:43;;;;;;;0.00;0.00;;;19.20;99.90;;;;;;4920696;29;20060;-82
2022/09/06 05:57:11;;;;;;;0.00;0.00;;;19.30;99.90;;;;;;4935455;29;20646;-82
2022/09/06 05:59:37;;;;;;;0.00;0.00;;;19.30;99.90;;;;;;4929117;29;20044;-83
2022/09/06 06:02:05;;;;;;;0.00;0.00;;;19.40;99.90;;;;;;4933103;29;20051;-83
2022/09/06 06:04:33;;;;;;;0.00;0.00;;;19.40;99.90;;;;;;4917205;29;20552;-83
2022/09/06 06:07:00;;;;;;;0.00;0.00;;;19.40;99.90;;;;;;4922138;29;20048;-83
2022/09/06 06:09:27;;;;;;;0.00;0.00;;;19.50;99.90;;;;;;4920204;29;20456;-83
2022/09/06 06:11:54;;;;;;;0.00;0.00;;;19.50;99.90;;;;;;4920144;29;20084;-84
2022/09/06 06:14:22;;;;;;;0.00;0.00;;;19.60;99.90;;;;;;4916944;29;20115;-83
2022/09/06 06:16:49;;;;;;;0.00;0.00;;;19.60;99.90;;;;;;4935840;29;20108;-83
2022/09/06 06:19:16;;;;;;;0.00;0.00;;;19.60;99.90;;;;;;4917731;29;20036;-83
2022/09/06 06:21:42;;;;;;;0.00;0.00;;;19.60;99.90;;;;;;4920420;29;20052;-83
2022/09/06 06:24:09;;;;;;;0.00;0.00;;;19.50;99.90;;;;;;4923311;29;20060;-82
2022/09/06 06:26:37;;;;;;;0.00;0.00;;;19.60;99.90;;;;;;4919546;29;20534;-84
2022/09/06 06:29:06;;;;;;;0.00;0.00;;;19.60;99.90;;;;;;4921571;29;20128;-83
2022/09/06 06:31:36;;;;;;;0.00;0.00;;;19.60;99.90;;;;;;4920413;29;20051;-83
2022/09/06 06:34:03;;;;;;;;;;;19.70;99.90;;;;;;4935541;29;20036;-83
2022/09/06 06:36:32;;;;;;;0.00;0.00;;;19.80;99.90;;;;;;4931111;29;19930;-82
2022/09/06 06:39:01;;;;;;;0.00;0.00;;;19.90;99.90;;;;;;4917923;29;20040;-83
2022/09/06 06:41:30;;;;;;;0.00;0.00;;;19.90;99.90;;;;;;4918390;29;20044;-82
2022/09/06 06:43:58;;;;;;;0.00;0.00;;;20.00;99.90;;;;;;4919639;29;20099;-82
2022/09/06 06:46:27;;;;;;;0.00;0.00;;;20.00;99.90;;;;;;4932254;29;20103;-83
2022/09/06 06:48:55;;;;;;;0.00;0.00;;;20.00;99.90;;;;;;4919237;29;20099;-82
2022/09/06 06:51:24;;;;;;;0.00;0.00;;;20.00;99.90;;;;;;4917084;29;20044;-83
2022/09/06 06:53:51;;;;;;;0.00;0.00;;;20.10;99.90;;;;;;4917470;29;20081;-83
2022/09/06 06:56:20;;;;;;;0.00;0.00;;;20.00;99.90;;;;;;4936625;29;20055;-83
2022/09/06 06:58:49;;;;;;;0.00;0.00;;;20.10;99.90;;;;;;4919803;29;20457;-83
2022/09/06 07:01:16;;;;;;;0.00;0.00;;;20.10;99.90;;;;;;4921089;29;20174;-83
2022/09/06 07:03:43;;;;;;;0.00;0.00;;;20.10;99.90;;;;;;4918281;29;20295;-83
2022/09/06 07:06:12;;;;;;;0.00;0.00;;;20.10;99.90;;;;;;4926360;29;20047;-84
2022/09/06 07:08:40;;;;;;;0.00;0.00;;;20.20;99.90;;;;;;4922426;29;20044;-84
2022/09/06 07:11:09;;;;;;;0.00;0.00;;;20.20;99.90;;;;;;4929030;29;20047;-84
2022/09/06 07:13:36;;;;;;;0.00;0.00;;;20.00;99.90;;;;;;4929140;29;20120;-84
2022/09/06 07:16:08;;;;;;;0.00;0.00;;;20.10;99.90;;;;;;4924783;29;20080;-85
2022/09/06 07:18:40;;;;;;;0.00;0.00;;;20.20;99.90;;;;;;4919832;29;20078;-84
2022/09/06 07:21:13;;;;;;;0.00;0.00;;;20.20;99.90;;;;;;4924902;29;20039;-81
2022/09/06 07:24:01;;;;;;;0.00;0.00;;;20.40;99.90;;;;;;4922930;29;20044;-84
2022/09/06 07:26:33;;;;;;;0.00;0.00;;;20.40;99.90;;;;;;4924298;29;20051;-82
2022/09/06 07:29:03;;;;;;;0.00;0.00;;;20.50;99.90;;;;;;4937047;29;20571;-83
2022/09/06 07:31:31;;;;;;;0.00;0.00;;;20.50;99.90;;;;;;4923091;29;20055;-83
2022/09/06 07:34:19;;;;;;;0.00;0.00;;;20.30;99.90;;;;;;4925801;29;20099;-84
2022/09/06 07:36:50;;;;;;;0.00;0.00;;;20.30;99.90;;;;;;4937089;29;20047;-83
2022/09/06 07:39:17;;;;;;;0.00;0.00;;;20.40;99.90;;;;;;4923348;29;20417;-83
2022/09/06 07:41:43;;;;;;;0.00;0.00;;;20.50;99.90;;;;;;4935990;29;20049;-83
2022/09/06 07:44:10;;;;;;;0.00;0.00;;;20.30;99.90;;;;;;4924893;29;20100;-83
2022/09/06 07:46:37;;;;;;;0.00;0.00;;;20.40;99.90;;;;;;4923361;29;20071;-84
2022/09/06 07:49:05;;;;;;;0.00;0.00;;;20.50;99.90;;;;;;4921860;29;20037;-84
2022/09/06 07:51:32;;;;;;;0.00;0.00;;;20.60;99.90;;;;;;4923830;29;20619;-84
2022/09/06 07:54:00;;;;;;;0.00;0.00;;;20.70;99.90;;;;;;4937548;29;20624;-82
2022/09/06 07:56:47;;;;;;;0.00;0.00;;;20.70;99.90;;;;;;4934281;29;20056;-84
2022/09/06 07:59:14;;;;;;;0.00;0.00;;;20.70;99.90;;;;;;4924772;29;20040;-84
2022/09/06 08:01:41;;;;;;;0.00;0.00;;;;;;;;;;4923006;29;20210;-83
2022/09/06 08:04:09;;;;;;;0.00;0.00;;;21.00;99.90;;;;;;4925065;29;20104;-83
2022/09/06 08:06:39;;;;;;;0.00;0.00;;;21.00;99.90;;;;;;4937377;29;20044;-83
2022/09/06 08:09:27;;;;;;;0.00;0.00;;;21.00;99.90;;;;;;4932888;29;20062;-83
2022/09/06 08:11:53;;;;;;;0.00;0.00;;;21.10;99.90;;;;;;4938212;29;20052;-84
2022/09/06 08:14:20;;;;;;;0.00;0.00;;;21.10;99.90;;;;;;4921197;29;20492;-84
2022/09/06 08:16:47;;;;;;;0.00;0.00;;;21.10;99.90;;;;;;4925021;29;20080;-84
2022/09/06 08:19:14;;;;;;;0.00;0.00;;;21.10;99.90;;;;;;4923975;29;20040;-83
2022/09/06 08:21:41;;;;;;;0.00;0.00;;;21.10;99.90;;;;;;4922259;29;20056;-82
2022/09/06 08:24:11;;;;;;;0.00;0.00;;;21.00;99.90;;;;;;4935624;29;20186;-83
2022/09/06 08:26:41;;;;;;;0.00;0.00;;;21.00;99.90;;;;;;4924401;29;20048;-84
2022/09/06 08:29:09;;;;;;;0.00;0.00;;;20.90;99.90;;;;;;4934051;29;20036;-84
2022/09/06 08:31:38;;;;;;;0.00;0.00;;;20.90;99.90;;;;;;4921233;29;20119;-83
2022/09/06 08:34:05;;;;;;;0.00;0.00;;;21.00;99.90;;;;;;4922640;29;20051;-84
2022/09/06 08:36:32;;;;;;;0.00;0.00;;;20.90;99.90;;;;;;4926110;29;20104;-84
2022/09/06 08:39:01;;;;;;;0.00;0.00;;;21.00;99.90;;;;;;4935879;29;20572;-83
2022/09/06 08:41:32;;;;;;;0.00;0.00;;;21.20;99.90;;;;;;4922963;29;20052;-83
2022/09/06 08:44:03;;;;;;;0.00;0.00;;;21.20;99.90;;;;;;4920678;29;20048;-83
2022/09/06 08:46:55;;;;;;;0.00;0.00;;;21.20;99.90;;;;;;4925008;29;20115;-84
2022/09/06 08:49:25;;;;;;;0.00;0.00;;;21.30;99.90;;;;;;4922255;29;20119;-83
2022/09/06 08:52:21;;;;;;;0.00;0.00;;;21.20;99.90;;;;;;4923688;29;20063;-83
2022/09/06 08:54:57;;;;;;;0.00;0.00;;;21.20;99.90;;;;;;4934025;29;20532;-84
2022/09/06 08:57:37;;;;;;;0.00;0.00;;;21.20;99.90;;;;;;4937766;29;20055;-83
2022/09/06 09:00:12;;;;;;;0.00;0.00;;;21.30;99.90;;;;;;4925970;29;20044;-82
2022/09/06 09:02:44;;;;;;;0.00;0.00;;;21.30;99.90;;;;;;4924110;29;20051;-81
2022/09/06 09:05:19;;;;;;;0.00;0.00;;;21.30;99.90;;;;;;4936084;29;20044;-82
2022/09/06 09:07:54;;;;;;;0.00;0.00;;;21.40;99.90;;;;;;4918938;29;20048;-81
2022/09/06 09:10:26;;;;;;;0.00;0.00;;;21.40;99.90;;;;;;4920814;29;20101;-84
2022/09/06 09:12:55;;;;;;;0.00;0.00;;;21.50;99.90;;;;;;4925304;29;20501;-83
2022/09/06 09:15:23;;;;;;;0.00;0.00;;;21.60;99.90;;;;;;4924326;29;20055;-84
2022/09/06 09:17:51;;;;;;;0.00;0.00;;;21.70;99.90;;;;;;4936146;29;20056;-84
2022/09/06 09:20:19;;;;;;;0.00;0.00;;;21.70;99.90;;;;;;4935536;29;20044;-84
2022/09/06 09:22:46;;;;;;;0.00;0.00;;;21.80;99.90;;;;;;4923132;29;20123;-83
2022/09/06 09:25:19;;;;;;;0.00;0.00;;;21.80;99.90;;;;;;4920573;29;20052;-83
2022/09/06 09:27:49;;;;;;;0.00;0.00;;;21.90;99.90;;;;;;4923682;29;20119;-82
2022/09/06 09:30:16;;;;;;;0.00;0.00;;;22.40;99.90;;;;;;4922965;29;20032;-84
2022/09/06 09:33:20;;;;;;;0.00;0.00;;;22.10;99.90;;;;;;4916884;29;20056;-82
2022/09/06 09:35:47;;;;;;;0.00;0.00;;;22.20;99.90;;;;;;4914609;29;20417;-84
2022/09/06 09:38:20;;;;;;;0.00;0.00;;;22.50;99.90;;;;;;4927638;23;20051;-87
2022/09/06 09:40:52;;;;;;;0.00;0.00;;;22.50;99.90;;;;;;4898522;29;20135;-86
2022/09/06 09:43:21;;;;;;;0.00;0.00;;;22.70;99.90;;;;;;4893275;29;20047;-87
2022/09/06 09:46:11;;;;;;;0.00;0.00;;;22.80;99.90;;;;;;4910724;29;20056;-86
2022/09/06 09:48:40;;;;;;;0.00;0.00;;;22.80;99.90;;;;;;4888443;29;20053;-87
2022/09/06 09:51:22;;;;;;;0.00;0.00;;;22.70;99.80;;;;;;4877835;29;20097;-87
2022/09/06 09:53:55;;;;;;;0.00;0.00;;;22.90;99.80;;;;;;4903378;23;20048;-84
2022/09/06 09:56:31;;;;;;;0.00;0.00;;;23.00;99.30;;;;;;4914873;29;20101;-84
2022/09/06 09:58:58;;;;;;;0.00;0.00;;;23.10;98.80;;;;;;4908109;29;20592;-85
2022/09/06 10:01:28;;;;;;;0.00;0.00;;;23.20;98.70;;;;;;4922795;29;20048;-83
2022/09/06 10:04:02;;;;;;;0.00;0.00;;;23.00;98.50;;;;;;4920240;29;20051;-83
2022/09/06 10:06:49;;;;;;;0.00;0.00;;;23.00;98.60;;;;;;4949271;23;20048;-79
2022/09/06 10:09:38;;;;;;;0.00;0.00;;;23.00;98.70;;;;;;4871844;29;20512;-80
2022/09/06 10:12:05;;;;;;;0.00;0.00;;;23.10;98.70;;;;;;4875156;29;20053;-79
2022/09/06 10:14:40;;;;;;;0.00;0.00;;;23.10;98.20;;;;;;4876930;29;20044;-79
2022/09/06 10:17:07;;;;;;;0.00;0.00;;;23.10;98.30;;;;;;4870419;29;20796;-80
2022/09/06 10:19:42;;;;;;;0.00;0.00;;;23.00;98.20;;;;;;4855981;29;20050;-80
2022/09/06 10:22:22;;;;;;;0.00;0.00;;;23.20;98.50;;;;;;4854322;29;20463;-79
2022/09/06 10:25:24;;;;;;;0.00;0.00;;;23.20;97.90;;;;;;4855748;29;20065;-79
2022/09/06 10:28:15;;;;;;;0.00;0.00;;;23.20;97.50;;;;;;4857616;29;20563;-79
2022/09/06 10:30:51;;;;;;;0.00;0.00;;;23.20;97.90;;;;;;4852741;29;20426;-78
2022/09/06 10:33:28;;;;;;;0.00;0.00;;;23.30;97.30;;;;;;4850417;29;20065;-79
2022/09/06 10:36:00;;;;;;;0.00;0.00;;;23.30;97.30;;;;;;4857398;29;20057;-80
2022/09/06 10:38:37;;;;;;;0.00;0.00;;;23.30;97.70;;;;;;4861000;29;20057;-79
2022/09/06 10:41:34;;;;;;;0.00;0.00;;;23.40;97.10;;;;;;4859635;29;20041;-80
2022/09/06 10:44:12;;;;;;;0.00;0.00;;;23.30;97.00;;;;;;4847906;29;20053;-79
2022/09/06 10:46:42;;;;;;;0.00;0.00;;;23.50;96.80;;;;;;4865791;29;20533;-79
2022/09/06 10:49:14;;;;;;;0.00;0.00;;;23.50;96.50;;;;;;4859205;29;20041;-79
2022/09/06 10:51:48;;;;;;;0.00;0.00;;;23.40;96.50;;;;;;4860798;29;20049;-78
2022/09/06 10:54:19;;;;;;;0.00;0.00;;;23.60;96.30;;;;;;4851223;29;20102;-78
2022/09/06 10:56:51;;;;;;;0.00;0.00;;;23.60;96.20;;;;;;4868706;29;20045;-78
2022/09/06 10:59:24;;;;;;;0.00;0.00;;;23.60;96.20;;;;;;4858562;29;20053;-79
2022/09/06 11:02:17;;;;;;;0.00;0.00;;;23.70;95.80;;;;;;4862335;29;20410;-80
2022/09/06 11:04:47;;;;;;;0.00;0.00;;;23.80;95.50;;;;;;4855525;29;20049;-80
2022/09/06 11:07:40;;;;;;;0.00;0.00;;;23.80;96.10;;;;;;4856757;29;20054;-80
2022/09/06 11:10:13;;;;;;;0.00;0.00;;;23.90;95.30;;;;;;4858070;29;20033;-80
2022/09/06 11:12:48;;;;;;;0.00;0.00;;;23.90;95.50;;;;;;4863073;29;20109;-79
2022/09/06 11:15:16;;;;;;;0.00;0.00;;;24.00;95.80;;;;;;4854145;29;20045;-79
2022/09/06 11:17:47;;;;;;;0.00;0.00;;;24.20;94.60;;;;;;4858492;29;20090;-80
2022/09/06 11:20:20;;;;;;;0.00;0.00;;;24.20;95.00;;;;;;4848938;29;20030;-80
2022/09/06 11:23:19;;;;;;;0.00;0.00;;;24.30;94.30;;;;;;4849277;29;20391;-78
2022/09/06 11:26:02;;;;;;;0.00;0.00;;;24.40;95.00;;;;;;4854048;29;20053;-80
2022/09/06 11:28:35;;;;;;;0.00;0.00;;;24.40;94.60;;;;;;4857378;29;20101;-78
2022/09/06 11:31:04;;;;;;;0.00;0.00;;;24.50;94.70;;;;;;4867412;29;20057;-80
2022/09/06 11:33:38;;;;;;;0.00;0.00;;;24.50;93.80;;;;;;4855981;29;20068;-79
2022/09/06 11:36:17;;;;;;;0.00;0.00;;;24.50;93.80;;;;;;4870429;29;20038;-80
2022/09/06 11:38:55;;;;;;;0.00;0.00;;;24.60;93.80;;;;;;4868881;29;20522;-76
2022/09/06 11:41:28;;;;;;;0.00;0.00;;;24.60;93.30;;;;;;4850403;29;20074;-79
2022/09/06 11:43:57;;;;;;;0.00;0.00;;;24.50;93.40;;;;;;4853893;29;22206;-80
2022/09/06 11:46:59;;;;;;;0.00;0.00;;;24.60;93.40;;;;;;4850099;29;20145;-80
2022/09/06 11:49:38;;;;;;;0.00;0.00;;;24.70;92.80;;;;;;4852333;29;20422;-80
2022/09/06 11:52:39;;;;;;;0.00;0.00;;;24.80;92.90;;;;;;4869853;29;20501;-80
2022/09/06 11:55:10;;;;;;;0.00;0.00;;;24.80;92.60;;;;;;4860093;29;20048;-79
2022/09/06 11:57:38;;;;;;;0.00;0.00;;;24.80;92.80;;;;;;4857380;29;20053;-78
2022/09/06 12:00:16;;;;;;;0.00;0.00;;;24.80;92.40;;;;;;4847452;29;20060;-80
2022/09/06 12:02:43;;;;;;;0.00;0.00;;;24.90;92.90;;;;;;4869266;29;20046;-79
2022/09/06 12:05:18;;;;;;;0.00;0.00;;;25.00;92.50;;;;;;4851583;29;20073;-79
2022/09/06 12:08:31;;;;;;;0.00;0.00;;;25.10;93.20;;;;;;4872692;29;20496;-80
2022/09/06 12:11:18;;;;;;;0.00;0.00;;;25.20;92.00;;;;;;4856784;29;20045;-80
2022/09/06 12:13:59;;;;;;;0.00;0.00;;;25.30;91.70;;;;;;4865818;29;20053;-79
2022/09/06 12:17:07;;;;;;;0.00;0.00;;;25.30;91.40;;;;;;4872200;29;20057;-80
2022/09/06 12:19:40;;;;;;;0.00;0.00;;;25.40;91.60;;;;;;4853343;29;20041;-79
2022/09/06 12:22:52;;;;;;;0.00;0.00;;;25.50;91.30;;;;;;4848445;29;20045;-80
2022/09/06 12:25:54;;;;;;;0.00;0.00;;;25.40;91.70;;;;;;4855056;29;20506;-80
2022/09/06 12:28:33;;;;;;;0.00;0.00;;;25.40;90.90;;;;;;4850268;29;20053;-80
2022/09/06 12:31:18;;;;;;;0.00;0.00;;;25.40;90.80;;;;;;4852189;29;20057;-79
2022/09/06 12:33:46;;;;;;;0.00;0.00;;;25.50;90.50;;;;;;4851066;29;20125;-79
2022/09/06 12:36:16;;;;;;;0.00;0.00;;;25.50;90.40;;;;;;4852870;29;20106;-79
2022/09/06 12:38:54;;;;;;;0.00;0.00;;;25.60;90.80;;;;;;4866964;29;20045;-79
2022/09/06 12:41:21;;;;;;;0.00;0.00;;;25.60;90.40;;;;;;4855404;29;20353;-80
2022/09/06 12:43:49;;;;;;;0.00;0.00;;;25.70;90.00;;;;;;4854065;29;20060;-80
2022/09/06 12:46:16;;;;;;;0.00;0.00;;;25.70;90.30;;;;;;4855663;29;20037;-79
2022/09/06 12:49:02;;;;;;;0.00;0.00;;;25.80;90.60;;;;;;4855737;29;20133;-78
2022/09/06 12:51:29;;;;;;;0.00;0.00;;;25.90;90.10;;;;;;4850527;29;20045;-80
2022/09/06 12:53:58;;;;;;;0.00;0.00;;;26.00;90.10;;;;;;4848812;29;20042;-80
2022/09/06 12:56:27;;;;;;;0.00;0.00;;;26.10;90.20;;;;;;4857557;29;20551;-80
2022/09/06 13:01:54;;;;;;;0.00;0.00;;;26.10;89.00;;;;;;5048771;27;21089;-80
2022/09/06 13:04:29;;;;;;;0.00;0.00;;;26.20;88.60;;;;;;5038721;27;20037;-79
2022/09/06 13:06:57;;;;;;;0.00;0.00;;;26.20;88.50;;;;;;5034064;28;20086;-80
2022/09/06 13:09:26;;;;;;;0.00;0.00;;;26.20;88.30;;;;;;5038518;28;20045;-81
2022/09/06 13:11:59;;;;;;;0.00;0.00;;;26.20;88.60;;;;;;5038886;27;20283;-79
2022/09/06 13:16:59;;;;;;;0.00;0.00;;;26.30;88.00;;;;;;5067807;28;20489;-83